Time;durP1;ratioP1;P1;durP2;ratioP2;P2;SDS_P1;SDS_P2;PMS_P1;PMS_P2;Temp;Humidity;BMP_temperature;BMP_pressure;BME280_temperature;BME280_humidity;BME280_pressure;Samples;Min_cycle;Max_cycle;Signal;HPM_P1;HPM_P2
2022/04/20 00:01:55;;;;;;;15.50;13.63;;;;;;;6.42;60.78;99344.84;5016758;28;20108;-96
2022/04/20 00:04:22;;;;;;;17.80;13.23;;;;;;;6.00;60.75;99274.81;5016980;28;20505;-96
2022/04/20 00:06:47;;;;;;;11.55;10.35;;;;;;;6.40;60.65;99344.16;5016839;28;20026;-96
2022/04/20 00:09:13;;;;;;;11.63;10.27;;;;;;;6.96;61.18;99435.47;5016879;28;20052;-96
2022/04/20 00:11:38;;;;;;;13.68;11.82;;;;;;;6.49;60.99;99388.63;5016750;28;20037;-96
2022/04/20 00:14:03;;;;;;;13.13;11.55;;;;;;;6.98;61.47;99460.59;5016700;28;20036;-96
2022/04/20 00:16:29;;;;;;;13.07;11.35;;;;;;;6.83;61.14;99446.41;5016560;28;20039;-96
2022/04/20 00:18:54;;;;;;;14.13;12.65;;;;;;;6.71;61.35;99450.28;5016295;28;20040;-96
2022/04/20 00:21:20;;;;;;;15.13;12.25;;;;;;;5.68;61.21;99270.97;5016505;28;20029;-96
2022/04/20 00:23:45;;;;;;;15.10;11.90;;;;;;;5.51;61.00;99257.91;5016600;28;20036;-96
2022/04/20 00:26:10;;;;;;;13.75;11.32;;;;;;;6.71;61.25;99421.41;5016014;28;20036;-96
2022/04/20 00:28:36;;;;;;;13.52;12.13;;;;;;;6.37;61.11;99416.09;5016731;28;20060;-96
2022/04/20 00:31:01;;;;;;;15.95;13.40;;;;;;;5.65;61.02;99267.84;5016523;28;20036;-96
2022/04/20 00:33:27;;;;;;;16.88;11.10;;;;;;;6.43;60.59;99378.78;5016587;28;20121;-96
2022/04/20 00:35:52;;;;;;;17.65;12.63;;;;;;;5.03;60.68;99171.00;5016378;28;20065;-96
2022/04/20 00:38:18;;;;;;;14.38;11.55;;;;;;;5.01;61.01;99159.03;5016961;28;20467;-96
2022/04/20 00:40:50;;;;;;;17.58;13.82;;;;;;;6.78;61.15;99424.22;5016163;28;20033;-96
2022/04/20 00:43:16;;;;;;;16.17;12.52;;;;;;;6.71;60.78;99423.22;5016058;28;20029;-96
2022/04/20 00:45:42;;;;;;;14.55;12.95;;;;;;;6.93;60.29;99483.03;5020129;28;20040;-96
2022/04/20 00:48:10;;;;;;;20.48;17.80;;;;;;;6.80;60.06;99475.56;5042151;28;20016;-95
2022/04/20 00:50:35;;;;;;;21.73;18.67;;;;;;;4.88;59.86;99179.53;5041939;28;20085;-93
2022/04/20 00:53:01;;;;;;;24.48;20.08;;;;;;;5.88;60.09;99350.19;5042046;28;20006;-94
2022/04/20 00:55:27;;;;;;;23.63;19.70;;;;;;;5.85;60.10;99336.56;5040757;28;20093;-95
2022/04/20 00:57:52;;;;;;;25.95;20.30;;;;;;;5.90;59.82;99343.03;5025276;28;20049;-94
2022/04/20 01:00:18;;;;;;;22.80;18.75;;;;;;;6.64;59.81;99512.19;5017109;28;20032;-96
2022/04/20 01:02:44;;;;;;;23.83;20.13;;;;;;;5.27;59.76;99267.22;5016058;28;20049;-96
2022/04/20 01:05:09;;;;;;;24.15;18.40;;;;;;;6.04;59.80;99391.47;5015761;28;20033;-96
2022/04/20 01:07:40;;;;;;;24.25;19.27;;;;;;;6.19;59.82;99407.47;5015839;28;20498;-96
2022/04/20 01:10:06;;;;;;;25.27;18.98;;;;;;;6.66;59.61;99492.69;5032386;28;20025;-96
2022/04/20 01:12:31;;;;;;;23.85;18.17;;;;;;;5.99;60.07;99448.75;5032370;28;20021;-93
2022/04/20 01:14:57;;;;;;;22.75;18.13;;;;;;;6.16;59.77;99437.44;5028243;28;20056;-96
2022/04/20 01:17:22;;;;;;;22.48;17.20;;;;;;;5.36;59.50;99310.00;5036570;28;20025;-96
2022/04/20 01:19:48;;;;;;;23.42;18.42;;;;;;;4.92;60.08;99239.25;5036058;28;20478;-96
2022/04/20 01:22:13;;;;;;;23.10;16.73;;;;;;;5.18;59.68;99315.19;5027010;28;20025;-96
2022/04/20 01:24:39;;;;;;;23.05;17.13;;;;;;;5.11;59.85;99278.34;5027141;28;20035;-96
2022/04/20 01:27:06;;;;;;;19.23;15.63;;;;;;;5.61;59.74;99387.78;5027549;28;20047;-96
2022/04/20 01:29:32;;;;;;;20.80;13.95;;;;;;;6.42;59.92;99484.66;5016868;28;20040;-96
2022/04/20 01:31:57;;;;;;;15.52;12.80;;;;;;;5.58;59.96;99359.28;5014858;28;20029;-96
2022/04/20 01:34:23;;;;;;;15.75;12.73;;;;;;;4.81;59.66;99249.94;5031420;28;20025;-96
2022/04/20 01:36:49;;;;;;;17.08;13.50;;;;;;;5.77;60.03;99397.59;5014859;28;20049;-96
2022/04/20 01:39:15;;;;;;;17.38;12.95;;;;;;;4.48;59.62;99183.41;5015060;28;20037;-96
2022/04/20 01:41:42;;;;;;;17.73;12.38;;;;;;;5.74;59.40;99409.19;5031188;28;20025;-96
2022/04/20 01:44:07;;;;;;;16.80;12.82;;;;;;;6.02;59.50;99443.22;5014984;28;20021;-95
2022/04/20 01:46:33;;;;;;;14.50;10.75;;;;;;;6.10;59.84;99447.69;5014701;28;20056;-95
2022/04/20 01:48:59;;;;;;;14.90;10.80;;;;;;;5.70;59.71;99384.25;5017401;28;20042;-96
2022/04/20 01:54:09;;;;;;;13.80;10.70;;;;;;;4.44;59.72;99219.44;5036792;28;20580;-96
2022/04/20 01:56:35;;;;;;;13.30;10.52;;;;;;;4.75;59.35;99243.50;5018430;28;20042;-96
2022/04/20 01:59:00;;;;;;;12.10;10.65;;;;;;;5.63;59.66;99391.09;5018620;28;20029;-96
2022/04/20 02:04:10;;;;;;;15.15;10.13;;;;;;;6.15;60.03;99490.81;5046298;28;20036;-95
2022/04/20 02:06:35;;;;;;;18.92;13.98;;;;;;;5.77;59.53;99400.19;5020807;28;20029;-96
2022/04/20 02:09:01;;;;;;;16.67;12.13;;;;;;;5.59;59.36;99379.25;5018623;28;20025;-95
2022/04/20 02:11:26;;;;;;;15.77;11.35;;;;;;;4.93;59.61;99271.47;5018943;28;20086;-95
2022/04/20 02:13:52;;;;;;;15.45;10.95;;;;;;;5.73;59.99;99427.69;5018721;28;20044;-96
2022/04/20 02:16:17;;;;;;;13.65;10.82;;;;;;;5.94;59.40;99443.94;5034977;28;20478;-96
2022/04/20 02:18:43;;;;;;;11.50;10.30;;;;;;;5.11;59.34;99309.75;5018434;28;20075;-95
2022/04/20 02:21:08;;;;;;;14.00;10.73;;;;;;;5.88;59.51;99439.28;5018402;28;20030;-96
2022/04/20 02:23:34;;;;;;;12.65;9.95;;;;;;;5.40;59.27;99403.78;5018492;28;20022;-96
2022/04/20 02:25:59;;;;;;;12.18;10.35;;;;;;;6.13;59.61;99476.22;5018259;28;20026;-95
2022/04/20 02:28:25;;;;;;;10.80;9.70;;;;;;;5.69;59.40;99411.44;5018256;28;20045;-94
2022/04/20 02:30:50;;;;;;;11.88;10.50;;;;;;;4.79;59.29;99272.78;5018394;28;20029;-95
2022/04/20 02:33:16;;;;;;;12.77;9.98;;;;;;;6.01;59.37;99513.16;5018407;28;20037;-95
2022/04/20 02:35:42;;;;;;;12.88;9.35;;;;;;;5.95;59.32;99482.31;5018431;28;20410;-95
2022/04/20 02:38:10;;;;;;;10.50;9.38;;;;;;;5.75;59.42;99468.47;5018401;28;20109;-95
2022/04/20 02:40:37;;;;;;;11.77;10.52;;;;;;;5.70;59.21;99430.59;5018205;28;20476;-96
2022/04/20 02:43:03;;;;;;;11.43;10.23;;;;;;;4.69;59.56;99280.69;5018224;28;20022;-95
2022/04/20 02:45:28;;;;;;;10.93;9.43;;;;;;;5.33;59.54;99380.97;5018193;28;20088;-95
2022/04/20 02:47:54;;;;;;;11.07;9.20;;;;;;;5.64;59.37;99454.75;5017928;28;20411;-95
2022/04/20 02:50:19;;;;;;;9.95;8.95;;;;;;;5.70;59.56;99467.25;5018102;28;20030;-96
2022/04/20 02:52:45;;;;;;;12.40;11.05;;;;;;;5.72;60.02;99476.63;5018018;28;20030;-95
2022/04/20 02:55:10;;;;;;;15.80;11.65;;;;;;;4.06;59.49;99240.56;5018007;28;20436;-95
2022/04/20 02:57:35;;;;;;;13.77;10.55;;;;;;;5.17;59.86;99380.78;5017559;28;20592;-94
2022/04/20 03:00:01;;;;;;;13.93;11.15;;;;;;;4.14;59.75;99220.59;5017358;28;20063;-94
2022/04/20 03:02:26;;;;;;;14.00;10.88;;;;;;;5.25;59.92;99392.19;5017681;28;20414;-94
2022/04/20 03:04:52;;;;;;;16.95;13.25;;;;;;;5.71;59.38;99506.41;5017472;28;20018;-95
2022/04/20 03:07:17;;;;;;;18.05;13.45;;;;;;;4.20;59.38;99244.47;5017340;28;20034;-96
2022/04/20 03:09:43;;;;;;;20.10;14.60;;;;;;;5.50;59.62;99429.91;5017753;28;20026;-94
2022/04/20 03:12:09;;;;;;;42.10;25.80;;;;;;;5.78;59.24;99490.09;5017392;28;20486;-95
2022/04/20 03:14:34;;;;;;;35.53;24.30;;;;;;;5.53;59.64;99445.31;5017862;28;20107;-96
2022/04/20 03:16:59;;;;;;;29.95;21.25;;;;;;;4.16;59.38;99223.03;5017477;28;20021;-95
2022/04/20 03:19:25;;;;;;;33.45;22.98;;;;;;;5.43;59.79;99418.38;5017513;28;20488;-95
2022/04/20 03:21:50;;;;;;;28.97;21.73;;;;;;;5.75;59.36;99509.56;5017378;28;20033;-95
2022/04/20 03:24:16;;;;;;;24.20;19.33;;;;;;;5.93;59.41;99504.34;5016660;28;20036;-91
2022/04/20 03:26:41;;;;;;;25.27;19.17;;;;;;;5.53;59.31;99461.03;5015885;28;20075;-90
2022/04/20 03:29:06;;;;;;;21.90;17.15;;;;;;;5.32;59.65;99437.75;5016114;28;20033;-91
2022/04/20 03:31:34;;;;;;;22.53;15.37;;;;;;;5.28;59.18;99446.84;5016107;28;20027;-91
2022/04/20 03:34:01;;;;;;;17.45;13.95;;;;;;;5.15;59.73;99445.53;5016255;28;20025;-91
2022/04/20 03:36:26;;;;;;;18.58;15.55;;;;;;;4.83;59.64;99359.63;5032316;28;20018;-91
2022/04/20 03:38:52;;;;;;;18.03;13.87;;;;;;;4.56;59.57;99345.59;5015909;28;20051;-90
2022/04/20 03:41:17;;;;;;;16.50;12.90;;;;;;;4.18;59.61;99291.66;5015891;28;20021;-90
2022/04/20 03:43:43;;;;;;;12.38;10.77;;;;;;;5.01;59.66;99431.97;5015906;28;20049;-90
2022/04/20 03:46:08;;;;;;;10.60;9.23;;;;;;;4.47;59.51;99341.22;5015697;28;20029;-90
2022/04/20 03:48:33;;;;;;;12.13;10.80;;;;;;;5.64;59.66;99496.66;5015838;28;20068;-90
2022/04/20 03:50:59;;;;;;;11.57;10.40;;;;;;;5.08;59.38;99433.03;5015915;28;20608;-91
2022/04/20 03:53:25;;;;;;;11.00;9.82;;;;;;;4.70;59.47;99391.34;5015528;28;20025;-90
2022/04/20 03:55:51;;;;;;;11.65;9.90;;;;;;;5.00;59.42;99456.47;5015651;28;20031;-89
2022/04/20 03:58:16;;;;;;;12.75;10.75;;;;;;;4.26;59.99;99369.34;5016688;28;20046;-87
2022/04/20 04:00:42;;;;;;;14.80;10.73;;;;;;;4.81;60.07;99448.72;5017046;28;20491;-88
2022/04/20 04:03:07;;;;;;;16.60;13.03;;;;;;;4.05;59.85;99306.84;5033806;28;20029;-89
2022/04/20 04:05:32;;;;;;;13.77;12.40;;;;;;;4.86;59.93;99428.19;5033759;28;20026;-90
2022/04/20 04:07:58;;;;;;;15.25;12.88;;;;;;;3.43;59.60;99232.47;5033415;28;20037;-89
2022/04/20 04:10:23;;;;;;;15.43;13.02;;;;;;;3.22;59.43;99190.91;5032670;28;20056;-90
2022/04/20 04:12:49;;;;;;;13.83;12.00;;;;;;;4.32;59.57;99347.88;5033388;28;20060;-89
2022/04/20 04:15:14;;;;;;;15.30;12.87;;;;;;;4.60;59.01;99351.34;5033165;28;20064;-90
2022/04/20 04:17:40;;;;;;;18.60;14.38;;;;;;;3.64;59.46;99232.28;5033178;28;20045;-90
2022/04/20 04:20:07;;;;;;;19.88;15.38;;;;;;;5.03;59.31;99453.56;5031390;28;20399;-90
2022/04/20 04:22:34;;;;;;;17.30;15.02;;;;;;;4.63;59.45;99356.28;5032795;28;20075;-91
2022/04/20 04:24:59;;;;;;;17.67;14.57;;;;;;;4.37;59.60;99320.31;5034189;28;20056;-94
2022/04/20 04:27:25;;;;;;;17.17;13.98;;;;;;;5.46;59.45;99483.53;5016327;28;20026;-95
2022/04/20 04:29:51;;;;;;;15.47;13.80;;;;;;;5.74;59.23;99548.03;5016507;28;20025;-95
2022/04/20 04:32:16;;;;;;;17.58;15.07;;;;;;;4.21;59.34;99282.72;5016221;28;20040;-95
2022/04/20 04:34:41;;;;;;;20.08;15.85;;;;;;;5.32;59.56;99476.19;5016337;28;20108;-95
2022/04/20 04:37:09;;;;;;;24.25;20.60;;;;;;;4.25;59.67;99297.97;5016372;28;20025;-94
2022/04/20 04:39:35;;;;;;;25.05;20.20;;;;;;;4.28;59.40;99279.38;5016123;28;20025;-94
2022/04/20 04:42:03;;;;;;;25.08;21.00;;;;;;;5.37;59.48;99487.03;5015995;28;20489;-95
2022/04/20 04:44:32;;;;;;;27.27;21.63;;;;;;;5.67;59.31;99481.47;5016044;28;20029;-95
2022/04/20 04:49:41;;;;;;;17.55;15.73;;;;;;;5.41;59.23;99468.28;5035344;28;20103;-95
2022/04/20 04:52:11;;;;;;;16.50;14.52;;;;;;;5.76;59.26;99534.78;5026391;28;20017;-93
2022/04/20 04:54:38;;;;;;;14.98;13.45;;;;;;;4.53;59.21;99326.75;5042161;28;20021;-93
2022/04/20 04:57:05;;;;;;;13.43;12.10;;;;;;;5.39;59.57;99470.22;5041833;28;20101;-94
2022/04/20 04:59:30;;;;;;;14.30;12.65;;;;;;;6.08;59.42;99580.69;5041895;28;20093;-93
2022/04/20 05:01:56;;;;;;;12.73;11.40;;;;;;;5.45;59.33;99500.22;5036874;28;20037;-94
2022/04/20 05:04:21;;;;;;;13.55;11.93;;;;;;;4.91;59.04;99393.75;5032980;28;20032;-95
2022/04/20 05:06:47;;;;;;;13.13;11.68;;;;;;;5.57;59.49;99475.47;5016764;28;20457;-96
2022/04/20 05:09:12;;;;;;;13.23;11.68;;;;;;;6.14;59.79;99562.56;5015908;28;20040;-94
2022/04/20 05:11:38;;;;;;;13.20;11.05;;;;;;;5.51;59.70;99467.41;5015898;28;20092;-96
2022/04/20 05:14:03;;;;;;;13.57;12.10;;;;;;;4.68;59.54;99302.59;5015811;28;20028;-96
2022/04/20 05:16:29;;;;;;;15.80;13.77;;;;;;;5.23;59.51;99388.91;5016093;28;20414;-96
2022/04/20 05:18:54;;;;;;;15.52;12.52;;;;;;;6.00;59.67;99484.47;5015789;28;20065;-96
2022/04/20 05:21:20;;;;;;;16.77;12.73;;;;;;;6.21;59.14;99497.28;5032102;28;20053;-96
2022/04/20 05:23:45;;;;;;;16.05;13.18;;;;;;;6.15;59.45;99490.00;5022224;28;20052;-96
2022/04/20 05:26:11;;;;;;;15.85;13.98;;;;;;;5.37;59.14;99351.72;5030358;28;20099;-95
2022/04/20 05:28:36;;;;;;;15.10;12.57;;;;;;;5.50;59.19;99363.63;5032626;28;20064;-95
2022/04/20 05:31:02;;;;;;;15.82;12.80;;;;;;;6.71;59.44;99536.03;5025580;28;20040;-96
2022/04/20 05:33:27;;;;;;;17.35;12.32;;;;;;;6.22;58.75;99473.53;5051523;28;20053;-96
2022/04/20 05:35:52;;;;;;;19.38;13.95;;;;;;;5.19;58.71;99298.53;5027040;28;20110;-94
2022/04/20 05:43:49;;;;;;;15.82;13.50;;;;;;;6.57;58.97;99471.81;5033638;28;20095;-95
2022/04/20 05:46:15;;;;;;;14.38;12.88;;;;;;;7.13;59.19;99523.00;5021885;28;20460;-96
2022/04/20 05:48:40;;;;;;;17.70;12.77;;;;;;;5.85;59.20;99365.38;5027223;28;20029;-96
2022/04/20 05:51:07;;;;;;;14.43;12.93;;;;;;;6.43;59.40;99419.91;5033875;28;20500;-95
2022/04/20 05:53:32;;;;;;;16.10;13.35;;;;;;;6.74;59.34;99434.22;5034062;28;20028;-95
2022/04/20 05:55:58;;;;;;;14.23;12.70;;;;;;;6.95;59.35;99466.16;5040783;28;20025;-96
2022/04/20 05:58:23;;;;;;;14.07;12.68;;;;;;;7.33;59.31;99532.28;5034542;28;20140;-96
2022/04/20 06:00:49;;;;;;;18.10;14.20;;;;;;;7.46;59.28;99510.84;5037440;28;20555;-96
2022/04/20 06:03:14;;;;;;;18.08;14.68;;;;;;;7.12;59.08;99453.09;5027295;28;20044;-96
2022/04/20 06:05:41;;;;;;;16.48;14.32;;;;;;;6.67;59.00;99351.84;5027836;28;20032;-96
2022/04/20 06:08:08;;;;;;;17.30;15.43;;;;;;;7.57;59.47;99487.75;5051567;28;20090;-96
2022/04/20 06:10:33;;;;;;;17.80;15.98;;;;;;;7.37;59.50;99472.38;5024505;28;20071;-96
2022/04/20 06:12:59;;;;;;;16.08;14.45;;;;;;;6.55;58.71;99338.19;5041545;28;20478;-96
2022/04/20 06:15:25;;;;;;;15.73;14.10;;;;;;;5.91;58.61;99203.19;5027647;28;20464;-96
2022/04/20 06:17:50;;;;;;;17.75;14.40;;;;;;;7.08;59.05;99380.88;5051969;28;20086;-95
2022/04/20 06:20:16;;;;;;;15.18;13.65;;;;;;;8.14;58.79;99521.19;5034958;28;20057;-96
2022/04/20 06:22:41;;;;;;;14.80;13.38;;;;;;;7.48;58.60;99401.19;5045486;28;20039;-96
2022/04/20 06:25:08;;;;;;;14.20;12.68;;;;;;;6.86;58.10;99301.75;5036322;28;20070;-96
2022/04/20 06:27:34;;;;;;;13.40;12.00;;;;;;;7.08;58.45;99346.75;5029247;28;20498;-96
2022/04/20 06:30:00;;;;;;;16.52;14.68;;;;;;;7.18;58.06;99327.25;5025167;28;20295;-96
2022/04/20 06:32:27;;;;;;;14.93;13.18;;;;;;;7.68;58.11;99384.13;5017036;28;20098;-96
2022/04/20 06:34:54;;;;;;;16.58;13.02;;;;;;;8.33;58.07;99484.13;5023392;28;20029;-96
2022/04/20 06:37:20;;;;;;;13.85;12.10;;;;;;;8.42;57.73;99482.28;5035917;28;20031;-96
2022/04/20 06:39:46;;;;;;;16.00;14.13;;;;;;;7.87;57.37;99356.72;5034550;28;20044;-96
2022/04/20 06:42:12;;;;;;;18.75;14.15;;;;;;;8.80;57.33;99483.38;5032296;28;20028;-96
2022/04/20 06:44:37;;;;;;;18.60;13.65;;;;;;;7.48;57.15;99280.34;5025370;28;20096;-96
2022/04/20 06:47:03;;;;;;;16.02;13.57;;;;;;;8.05;56.96;99333.69;5018779;28;20072;-96
2022/04/20 06:49:29;;;;;;;15.65;12.98;;;;;;;8.42;57.25;99412.09;5020053;28;20025;-96
2022/04/20 07:00:07;;;;;;;14.23;12.30;;;;;;;8.76;56.33;99335.50;5046718;28;20409;-96
2022/04/20 07:02:33;;;;;;;16.48;13.35;;;;;;;8.95;56.37;99342.19;5031796;28;20032;-96
2022/04/20 07:04:58;;;;;;;18.98;14.80;;;;;;;9.46;56.45;99429.47;5018315;28;20060;-95
2022/04/20 07:07:24;;;;;;;17.55;14.35;;;;;;;10.03;56.21;99466.03;5019895;28;20033;-95
2022/04/20 07:09:49;;;;;;;16.95;14.43;;;;;;;9.97;55.98;99443.84;5033608;28;20044;-95
2022/04/20 07:12:15;;;;;;;14.77;12.57;;;;;;;10.27;55.90;99467.69;5018812;28;20116;-95
2022/04/20 07:14:40;;;;;;;13.82;12.40;;;;;;;9.39;56.18;99315.22;5034586;28;20035;-96
2022/04/20 07:17:07;;;;;;;18.23;14.55;;;;;;;10.39;55.99;99451.25;5020189;28;20032;-95
2022/04/20 07:19:34;;;;;;;13.75;12.25;;;;;;;10.27;56.53;99433.41;5038689;28;20027;-96
2022/04/20 07:22:00;;;;;;;12.07;10.85;;;;;;;10.56;56.33;99454.59;5037841;28;20048;-96
2022/04/20 07:24:25;;;;;;;12.38;11.18;;;;;;;10.31;56.99;99398.56;5026162;28;20131;-96
2022/04/20 07:26:50;;;;;;;10.32;9.40;;;;;;;10.14;56.96;99386.50;5036008;28;20033;-96
2022/04/20 07:29:16;;;;;;;11.15;10.05;;;;;;;10.62;56.79;99447.78;5046822;28;20123;-95
2022/04/20 07:31:41;;;;;;;10.70;9.70;;;;;;;10.43;57.15;99407.69;5026084;28;20028;-96
2022/04/20 07:34:07;;;;;;;11.02;9.93;;;;;;;10.13;56.99;99375.13;5026008;28;20033;-96
2022/04/20 07:36:32;;;;;;;11.45;10.30;;;;;;;10.35;57.19;99376.09;5034833;28;20025;-96
2022/04/20 07:38:58;;;;;;;12.77;11.50;;;;;;;10.29;57.66;99331.94;5037487;28;20036;-96
2022/04/20 07:41:23;;;;;;;11.32;10.30;;;;;;;10.86;57.36;99405.25;5037519;28;20496;-96
2022/04/20 07:43:49;;;;;;;12.60;11.32;;;;;;;10.48;57.21;99326.16;5031247;28;21447;-95
2022/04/20 07:46:17;;;;;;;13.90;12.63;;;;;;;10.65;56.99;99326.78;5019776;28;20044;-94
2022/04/20 07:48:43;;;;;;;12.77;11.48;;;;;;;10.65;57.32;99292.47;5018998;28;20025;-96
2022/04/20 07:51:09;;;;;;;12.30;11.00;;;;;;;11.55;57.21;99431.31;5040346;28;20029;-96
2022/04/20 07:53:34;;;;;;;13.55;12.15;;;;;;;10.89;57.25;99290.50;5048712;28;20035;-96
2022/04/20 07:56:00;;;;;;;13.20;11.90;;;;;;;11.20;57.17;99295.53;5023270;28;20025;-96
2022/04/20 07:58:25;;;;;;;12.10;10.93;;;;;;;11.77;57.06;99393.28;5037230;28;20067;-96
2022/04/20 08:00:53;;;;;;;14.52;12.50;;;;;;;11.04;56.47;99222.59;5038255;28;20036;-94
2022/04/20 08:03:19;;;;;;;10.80;9.70;;;;;;;12.00;55.99;99348.16;5053571;28;20025;-94
2022/04/20 08:06:02;;;;;;;11.13;10.02;;;;;;;11.66;55.01;99277.44;5053504;28;20040;-94
2022/04/20 08:08:28;;;;;;;9.52;8.68;;;;;;;11.98;54.68;99319.25;5037143;28;20035;-93
2022/04/20 08:10:53;;;;;;;9.35;8.55;;;;;;;12.45;53.80;99361.91;5053622;28;20085;-93
2022/04/20 08:16:03;;;;;;;9.52;8.73;;;;;;;11.65;53.51;99209.69;5045058;28;20056;-96
2022/04/20 08:18:29;;;;;;;9.77;8.82;;;;;;;12.23;53.07;99273.81;5016805;28;20037;-95
2022/04/20 08:20:54;;;;;;;8.80;8.00;;;;;;;12.98;52.65;99371.78;5051018;28;20103;-95
2022/04/20 08:23:20;;;;;;;8.57;7.53;;;;;;;13.09;52.52;99361.63;5053195;28;20021;-86
2022/04/20 08:25:46;;;;;;;9.35;8.38;;;;;;;12.97;52.34;99327.75;5037427;28;20021;-85
2022/04/20 08:28:12;;;;;;;9.40;8.63;;;;;;;13.12;52.01;99322.28;5030960;28;20387;-86
2022/04/20 08:30:39;;;;;;;8.57;7.75;;;;;;;11.81;51.39;99081.66;5032246;28;20486;-86
2022/04/20 08:33:09;;;;;;;11.40;10.27;;;;;;;13.51;51.37;99350.78;5019862;28;20040;-85
2022/04/20 08:35:35;;;;;;;9.07;8.18;;;;;;;13.04;50.98;99274.78;5036600;28;20029;-87
2022/04/20 08:38:01;;;;;;;10.07;8.32;;;;;;;12.84;51.17;99239.47;5047754;28;20081;-86
2022/04/20 08:40:28;;;;;;;10.82;9.80;;;;;;;12.89;51.57;99237.03;5042335;28;20056;-86
2022/04/20 08:42:54;;;;;;;18.35;16.38;;;;;;;13.52;51.70;99335.69;5040780;28;20025;-86
2022/04/20 08:45:20;;;;;;;10.20;9.23;;;;;;;13.56;51.45;99321.00;5050310;28;20028;-86
2022/04/20 08:47:49;;;;;;;8.63;7.90;;;;;;;13.21;51.07;99262.81;5050235;28;20044;-86
2022/04/20 08:50:14;;;;;;;9.07;8.27;;;;;;;13.38;50.71;99246.50;5051826;28;20029;-85
2022/04/20 08:52:42;;;;;;;9.13;8.23;;;;;;;13.33;50.75;99250.59;5049886;28;20036;-86
2022/04/20 08:55:15;;;;;;;9.30;8.40;;;;;;;13.91;50.84;99332.25;5049634;28;20047;-86
2022/04/20 08:57:42;;;;;;;7.72;6.93;;;;;;;13.91;50.58;99332.25;5043229;28;20061;-85
2022/04/20 09:00:11;;;;;;;8.00;7.30;;;;;;;13.70;50.40;99325.31;5029134;28;20032;-82
2022/04/20 09:02:37;;;;;;;9.27;8.48;;;;;;;13.16;50.63;99248.50;5061649;28;20037;-83
2022/04/20 09:05:03;;;;;;;9.23;8.43;;;;;;;13.78;50.96;99341.03;5048508;28;20029;-86
2022/04/20 09:07:32;;;;;;;8.40;7.70;;;;;;;13.81;50.95;99331.84;5028532;28;20498;-86
2022/04/20 09:10:00;;;;;;;9.90;9.00;;;;;;;13.20;50.89;99226.72;5031442;28;20025;-86
2022/04/20 09:12:28;;;;;;;8.52;7.72;;;;;;;13.55;50.94;99292.84;5017955;28;20123;-86
2022/04/20 09:14:56;;;;;;;9.18;8.30;;;;;;;13.85;50.75;99331.22;5039900;28;20056;-87
2022/04/20 09:17:24;;;;;;;10.23;9.25;;;;;;;13.87;50.66;99334.50;5050598;28;20091;-87
2022/04/20 09:19:51;;;;;;;9.43;8.30;;;;;;;13.43;50.99;99267.97;5023270;28;20033;-86
2022/04/20 09:22:22;;;;;;;8.85;8.10;;;;;;;13.85;51.08;99352.47;5025707;28;20425;-84
2022/04/20 09:25:06;;;;;;;8.15;7.45;;;;;;;13.71;51.15;99364.09;5047348;28;20047;-92
2022/04/20 09:27:36;;;;;;;9.25;8.35;;;;;;;13.62;51.10;99331.63;5046083;28;20033;-92
2022/04/20 09:30:04;;;;;;;7.72;7.03;;;;;;;13.33;50.99;99303.63;5032979;28;20035;-93
2022/04/20 09:32:35;;;;;;;8.00;7.30;;;;;;;13.02;51.56;99269.66;5038035;28;20009;-91
2022/04/20 09:35:03;;;;;;;9.43;8.63;;;;;;;13.47;51.68;99344.25;5050169;28;20044;-94
2022/04/20 09:37:30;;;;;;;8.95;8.23;;;;;;;13.34;52.06;99338.91;5059993;28;20048;-94
2022/04/20 09:39:56;;;;;;;9.20;8.40;;;;;;;13.52;52.44;99356.91;5052343;28;20033;-93
2022/04/20 09:42:21;;;;;;;10.02;9.02;;;;;;;12.95;52.52;99250.28;5040721;28;20067;-93
2022/04/20 09:44:59;;;;;;;9.68;8.68;;;;;;;13.07;52.90;99265.59;5048824;28;20029;-94
2022/04/20 09:50:13;;;;;;;10.35;8.75;;;;;;;13.01;52.62;99232.78;5040099;28;20045;-93
2022/04/20 09:52:49;;;;;;;15.27;13.68;;;;;;;13.48;53.90;99339.78;5014634;28;20068;-91
2022/04/20 09:55:31;;;;;;;16.52;14.90;;;;;;;12.88;55.03;99322.84;5017646;28;20050;-92
2022/04/20 09:58:11;;;;;;;17.55;15.82;;;;;;;12.64;56.47;99350.66;5047231;28;20076;-93
2022/04/20 10:00:41;;;;;;;17.38;15.77;;;;;;;12.63;57.90;99359.56;5036330;28;20033;-94
2022/04/20 10:03:07;;;;;;;17.27;15.57;;;;;;;12.47;57.89;99365.19;5031959;28;20116;-93
2022/04/20 10:05:32;;;;;;;17.35;15.55;;;;;;;11.83;57.80;99268.25;5034549;28;20116;-93
2022/04/20 10:07:59;;;;;;;15.98;14.48;;;;;;;11.92;58.27;99290.09;5046753;28;20029;-94
2022/04/20 10:10:27;;;;;;;16.80;15.15;;;;;;;12.29;58.47;99361.22;5055585;28;20021;-94
2022/04/20 10:12:54;;;;;;;18.65;16.75;;;;;;;12.28;58.88;99372.00;5056186;28;20111;-94
2022/04/20 10:18:14;;;;;;;14.82;13.48;;;;;;;12.39;58.15;99348.44;5056039;28;20146;-95
2022/04/20 10:20:42;;;;;;;14.70;13.20;;;;;;;12.52;57.82;99331.00;5042134;28;20021;-93
2022/04/20 10:23:10;;;;;;;14.27;12.77;;;;;;;12.16;57.68;99242.00;5021654;28;20024;-92
2022/04/20 10:25:39;;;;;;;14.60;13.20;;;;;;;12.69;57.33;99327.84;5025200;28;20167;-94
2022/04/20 10:28:31;;;;;;;13.77;11.95;;;;;;;12.14;57.42;99254.63;5042000;28;20445;-93
2022/04/20 10:31:03;;;;;;;12.68;11.38;;;;;;;10.95;58.14;99086.38;5056023;28;20032;-94
2022/04/20 10:33:33;;;;;;;13.80;12.40;;;;;;;12.31;57.91;99329.25;5055778;28;20064;-94
2022/04/20 10:36:09;;;;;;;13.00;11.80;;;;;;;12.60;58.06;99326.34;5055160;28;20021;-93
2022/04/20 10:38:34;;;;;;;12.77;11.57;;;;;;;12.78;56.01;99208.47;5050563;28;20040;-93
2022/04/20 10:41:17;;;;;;;14.15;12.68;;;;;;;14.03;55.23;99325.31;5032848;28;20022;-93
2022/04/20 10:43:43;;;;;;;12.52;11.43;;;;;;;14.13;53.91;99275.28;5036078;28;20579;-93
2022/04/20 10:46:20;;;;;;;13.50;12.15;;;;;;;14.20;53.37;99291.19;5035501;28;20032;-93
2022/04/20 10:49:02;;;;;;;13.65;12.25;;;;;;;14.17;52.97;99262.41;5017413;28;20026;-93
2022/04/20 10:51:32;;;;;;;13.57;12.20;;;;;;;14.34;53.49;99313.22;5026281;28;20036;-93
2022/04/20 10:54:29;;;;;;;14.05;10.88;;;;;;;14.17;53.57;99312.84;5053149;28;20579;-92
2022/04/20 10:57:01;;;;;;;14.35;12.07;;;;;;;13.94;54.09;99295.50;5033278;28;20049;-92
2022/04/20 10:59:26;;;;;;;12.73;10.95;;;;;;;12.85;54.21;99153.66;5043981;28;20037;-92
2022/04/20 11:02:05;;;;;;;11.98;10.75;;;;;;;13.82;54.72;99301.63;5037054;28;20033;-93
2022/04/20 11:04:48;;;;;;;12.93;11.63;;;;;;;13.67;54.82;99292.03;5039706;28;20037;-93
2022/04/20 11:07:15;;;;;;;13.93;12.15;;;;;;;13.25;55.04;99264.03;5054045;28;20030;-92
2022/04/20 11:09:41;;;;;;;15.00;13.45;;;;;;;13.32;55.81;99295.88;5049419;28;20033;-93
2022/04/20 11:21:03;;;;;;;14.48;12.98;;;;;;;12.99;56.51;99288.63;5034686;28;20072;-92
2022/04/20 11:23:53;;;;;;;14.60;12.05;;;;;;;12.91;57.30;99278.22;5054167;28;20504;-93
2022/04/20 11:26:41;;;;;;;12.88;11.63;;;;;;;12.91;56.69;99280.03;5051070;28;20029;-93
2022/04/20 11:29:17;;;;;;;14.40;13.00;;;;;;;12.88;56.29;99281.25;5007162;28;20514;-94
2022/04/20 11:31:48;;;;;;;13.70;12.35;;;;;;;11.89;56.81;99122.00;5021299;28;20029;-93
2022/04/20 11:34:16;;;;;;;14.45;11.88;;;;;;;12.84;56.43;99265.97;5016607;28;20418;-93
2022/04/20 11:36:44;;;;;;;14.65;12.15;;;;;;;12.17;56.37;99158.13;5034272;28;20061;-92
2022/04/20 11:39:14;;;;;;;13.55;11.88;;;;;;;12.07;57.36;99146.09;5046513;28;20031;-92
2022/04/20 11:41:48;;;;;;;13.02;11.82;;;;;;;12.44;57.26;99212.81;5028273;28;20029;-92
2022/04/20 11:44:31;;;;;;;13.60;12.20;;;;;;;12.78;57.68;99245.56;5015987;28;20053;-92
2022/04/20 11:47:01;;;;;;;14.13;12.55;;;;;;;12.77;57.30;99241.28;5016111;28;20127;-93
2022/04/20 11:49:48;;;;;;;14.02;12.52;;;;;;;12.80;57.56;99252.28;5024028;28;20459;-93
2022/04/20 11:52:15;;;;;;;14.60;13.10;;;;;;;12.30;57.41;99177.53;5020486;28;20033;-93
2022/04/20 11:54:45;;;;;;;13.38;12.07;;;;;;;12.84;57.11;99244.75;5021533;28;20034;-93
2022/04/20 11:57:12;;;;;;;12.40;10.48;;;;;;;12.30;57.00;99153.72;5030905;28;20033;-93
2022/04/20 11:59:41;;;;;;;14.50;11.18;;;;;;;12.45;57.56;99179.22;5026014;28;20029;-93
2022/04/20 12:02:07;;;;;;;11.98;10.75;;;;;;;12.03;56.67;99091.13;5042774;28;20041;-92
2022/04/20 12:04:32;;;;;;;14.63;13.05;;;;;;;12.55;57.54;99172.53;5030673;28;20036;-92